Aviation Digital Data Service (ADDS)

Output produced by METARs form (2339 UTC 25 February 2018)
found at http://www.aviationweather.gov/adds/metars/
 
EGYP 252250Z 23008KT CAVOK 12/05 Q1009 BLU
TAF EGYP 252225Z 2600/2618 22010KT CAVOK